createdAt,value
2022-12-22T00:02:22.998Z,1.88
2022-12-22T00:04:49.602Z,1.35
2022-12-22T00:07:16.104Z,2.47
2022-12-22T00:09:42.636Z,1.27
2022-12-22T00:12:09.124Z,2.13
2022-12-22T00:14:35.640Z,1.52
2022-12-22T00:17:02.171Z,2.08
2022-12-22T00:19:28.699Z,1.38
2022-12-22T00:21:55.149Z,3.28
2022-12-22T00:24:21.659Z,1.05
2022-12-22T00:26:48.107Z,1.60
2022-12-22T00:29:14.565Z,1.58
2022-12-22T00:31:41.017Z,1.80
2022-12-22T00:34:07.550Z,1.88
2022-12-22T00:36:33.999Z,1.25
2022-12-22T00:39:00.508Z,1.73
2022-12-22T00:41:26.975Z,1.10
2022-12-22T00:43:53.436Z,1.73
2022-12-22T00:46:19.993Z,1.17
2022-12-22T00:48:46.579Z,2.00
2022-12-22T00:51:13.088Z,1.20
2022-12-22T00:53:39.534Z,1.77
2022-12-22T00:56:06.014Z,1.40
2022-12-22T00:58:32.539Z,1.40
2022-12-22T01:00:59.124Z,1.60
2022-12-22T01:03:25.676Z,0.88
2022-12-22T01:05:52.235Z,1.45
2022-12-22T01:08:18.734Z,1.90
2022-12-22T01:10:45.234Z,1.77
2022-12-22T01:13:11.738Z,2.25
2022-12-22T01:15:38.248Z,1.10
2022-12-22T01:18:04.842Z,1.60
2022-12-22T01:20:31.308Z,1.80
2022-12-22T01:22:57.799Z,1.08
2022-12-22T01:25:24.288Z,0.80
2022-12-22T01:27:50.742Z,1.20
2022-12-22T01:30:17.189Z,1.35
2022-12-22T01:32:43.705Z,0.88
2022-12-22T01:35:10.172Z,1.45
2022-12-22T01:37:36.704Z,1.30
2022-12-22T01:40:03.175Z,1.33
2022-12-22T01:42:29.686Z,1.00
2022-12-22T01:44:56.168Z,1.20
2022-12-22T01:47:22.610Z,2.15
2022-12-22T01:49:49.066Z,1.60
2022-12-22T01:52:15.558Z,1.77
2022-12-22T01:54:42.068Z,1.00
2022-12-22T01:57:08.581Z,1.05
2022-12-22T01:59:35.117Z,1.30
2022-12-22T02:02:01.713Z,0.73
2022-12-22T02:04:28.217Z,0.98
2022-12-22T02:06:59.742Z,1.17
2022-12-22T02:09:26.837Z,0.90
2022-12-22T02:11:53.310Z,2.95
2022-12-22T02:14:23.591Z,0.68
2022-12-22T02:16:52.676Z,1.33
2022-12-22T02:19:19.175Z,1.17
2022-12-22T02:21:45.690Z,1.00
2022-12-22T02:24:12.207Z,0.90
2022-12-22T02:26:38.738Z,0.68
2022-12-22T02:29:05.811Z,1.05
2022-12-22T02:31:32.422Z,0.90
2022-12-22T02:33:58.973Z,1.60
2022-12-22T02:36:25.463Z,0.90
2022-12-22T02:38:51.904Z,1.08
2022-12-22T02:41:18.383Z,0.93
2022-12-22T02:43:44.888Z,1.02
2022-12-22T02:46:11.410Z,1.00
2022-12-22T02:48:37.885Z,0.95
2022-12-22T02:51:04.344Z,2.50
2022-12-22T02:53:30.805Z,1.42
2022-12-22T02:55:57.281Z,0.68
2022-12-22T02:58:23.823Z,2.75
2022-12-22T03:00:50.272Z,0.70
2022-12-22T03:03:16.968Z,0.68
2022-12-22T03:05:43.538Z,1.02
2022-12-22T03:08:09.990Z,0.85
2022-12-22T03:10:36.485Z,0.85
2022-12-22T03:13:02.928Z,0.50
2022-12-22T03:15:29.411Z,2.55
2022-12-22T03:17:55.864Z,1.25
2022-12-22T03:20:22.315Z,1.02
2022-12-22T03:22:48.761Z,0.52
2022-12-22T03:25:15.201Z,1.00
2022-12-22T03:27:41.693Z,0.52
2022-12-22T03:30:08.195Z,0.90
2022-12-22T03:32:34.651Z,0.85
2022-12-22T03:35:01.157Z,1.13
2022-12-22T03:37:27.659Z,0.88
2022-12-22T03:39:54.123Z,0.98
2022-12-22T03:42:20.584Z,0.52
2022-12-22T03:44:47.064Z,0.57
2022-12-22T03:47:13.624Z,0.68
2022-12-22T03:49:40.123Z,0.80
2022-12-22T03:52:06.561Z,0.73
2022-12-22T03:54:33.035Z,1.15
2022-12-22T03:56:59.474Z,0.95
2022-12-22T03:59:25.911Z,0.95
2022-12-22T04:01:52.483Z,2.30
2022-12-22T04:04:19.197Z,0.70
2022-12-22T04:06:45.680Z,0.80
2022-12-22T04:09:12.169Z,0.80
2022-12-22T04:11:38.677Z,0.73
2022-12-22T04:14:05.181Z,0.98
2022-12-22T04:16:31.684Z,1.25
2022-12-22T04:18:58.187Z,1.95
2022-12-22T04:21:24.619Z,1.25
2022-12-22T04:23:51.094Z,0.93
2022-12-22T04:26:17.523Z,0.50
2022-12-22T04:28:44.036Z,0.82
2022-12-22T04:31:10.483Z,0.77
2022-12-22T04:33:36.936Z,0.65
2022-12-22T04:36:03.366Z,0.80
2022-12-22T04:38:29.831Z,0.95
2022-12-22T04:40:56.325Z,1.85
2022-12-22T04:43:22.792Z,1.38
2022-12-22T04:45:49.302Z,1.25
2022-12-22T04:48:15.771Z,0.75
2022-12-22T04:50:42.220Z,0.70
2022-12-22T04:53:08.720Z,0.85
2022-12-22T04:55:35.269Z,0.50
2022-12-22T04:58:01.779Z,1.58
2022-12-22T05:00:28.270Z,1.27
2022-12-22T05:02:54.835Z,0.73
2022-12-22T05:05:21.402Z,0.52
2022-12-22T05:07:47.900Z,0.93
2022-12-22T05:10:14.337Z,0.35
2022-12-22T05:12:40.826Z,0.65
2022-12-22T05:15:07.309Z,3.92
2022-12-22T05:17:33.791Z,1.23
2022-12-22T05:20:00.303Z,1.33
2022-12-22T05:22:26.817Z,1.10
2022-12-22T05:24:54.160Z,0.88
2022-12-22T05:27:20.646Z,3.15
2022-12-22T05:29:47.103Z,0.80
2022-12-22T05:32:13.545Z,1.77
2022-12-22T05:34:39.999Z,1.85
2022-12-22T05:37:06.457Z,3.70
2022-12-22T05:39:32.949Z,2.17
2022-12-22T05:41:59.388Z,2.75
2022-12-22T05:44:25.843Z,2.45
2022-12-22T05:46:52.272Z,1.05
2022-12-22T05:49:18.760Z,1.45
2022-12-22T05:51:45.202Z,0.80
2022-12-22T05:54:11.668Z,1.38
2022-12-22T05:56:38.153Z,2.03
2022-12-22T05:59:04.589Z,1.50
2022-12-22T06:01:31.132Z,1.33
2022-12-22T06:04:00.343Z,1.42
2022-12-22T06:06:27.228Z,2.03
2022-12-22T06:08:53.663Z,2.28
2022-12-22T06:11:20.139Z,3.67
2022-12-22T06:13:46.617Z,4.35
2022-12-22T06:16:13.130Z,2.05
2022-12-22T06:18:39.627Z,4.47
2022-12-22T06:21:06.067Z,5.35
2022-12-22T06:23:32.521Z,4.30
2022-12-22T06:25:58.959Z,3.70
2022-12-22T06:28:25.438Z,10.18
2022-12-22T06:30:51.987Z,9.13
2022-12-22T06:33:18.529Z,6.25
2022-12-22T06:35:44.987Z,5.65
2022-12-22T06:38:11.470Z,9.02
2022-12-22T06:40:37.973Z,4.18
2022-12-22T06:43:08.766Z,5.15
2022-12-22T06:45:35.708Z,5.22
2022-12-22T06:48:02.144Z,8.85
2022-12-22T06:50:28.623Z,6.93
2022-12-22T06:52:55.062Z,4.90
2022-12-22T06:55:21.580Z,7.25
2022-12-22T06:57:48.081Z,3.97
2022-12-22T07:00:14.604Z,6.72
2022-12-22T07:02:41.299Z,1.48
2022-12-22T07:05:07.995Z,5.70
2022-12-22T07:07:34.463Z,3.38
2022-12-22T07:10:00.954Z,6.60
2022-12-22T07:12:27.460Z,6.50
2022-12-22T07:14:53.893Z,7.30
2022-12-22T07:17:20.341Z,5.97
2022-12-22T07:19:46.815Z,4.72
2022-12-22T07:22:13.297Z,4.10
2022-12-22T07:24:39.740Z,5.20
2022-12-22T07:27:06.174Z,5.97
2022-12-22T07:29:32.609Z,4.35
2022-12-22T07:31:59.149Z,5.03
2022-12-22T07:34:25.641Z,1.88
2022-12-22T07:36:52.138Z,3.47
2022-12-22T07:39:18.650Z,1.60
2022-12-22T07:41:45.121Z,3.47
2022-12-22T07:44:11.604Z,1.83
2022-12-22T07:46:38.184Z,2.40
2022-12-22T07:49:04.869Z,1.80
2022-12-22T07:51:31.381Z,6.35
2022-12-22T07:53:57.898Z,2.25
2022-12-22T07:56:24.334Z,3.42
2022-12-22T07:58:50.823Z,4.13
2022-12-22T08:01:17.327Z,5.32
2022-12-22T08:03:43.766Z,8.50
2022-12-22T08:06:10.381Z,2.28
2022-12-22T08:08:36.882Z,2.30
2022-12-22T08:11:03.375Z,4.88
2022-12-22T08:13:29.886Z,2.33
2022-12-22T08:15:56.517Z,3.30
2022-12-22T08:18:23.018Z,1.40
2022-12-22T08:20:49.463Z,1.63
2022-12-22T08:23:15.937Z,1.83
2022-12-22T08:25:42.388Z,1.98
2022-12-22T08:28:08.840Z,1.92
2022-12-22T08:30:35.338Z,2.42
2022-12-22T08:33:01.799Z,3.70
2022-12-22T08:35:28.273Z,3.95
2022-12-22T08:37:54.719Z,2.03
2022-12-22T08:40:21.233Z,4.35
2022-12-22T08:42:47.727Z,2.30
2022-12-22T08:45:14.206Z,2.83
2022-12-22T08:47:40.679Z,1.42
2022-12-22T08:50:07.123Z,2.53
2022-12-22T08:52:33.724Z,3.30
2022-12-22T08:55:00.189Z,1.85
2022-12-22T08:57:26.702Z,1.77
2022-12-22T08:59:53.154Z,4.05
2022-12-22T09:02:19.731Z,2.22
2022-12-22T09:04:46.253Z,1.92
2022-12-22T09:07:12.726Z,4.50
2022-12-22T09:09:39.190Z,2.00
2022-12-22T09:12:05.635Z,3.95
2022-12-22T09:14:32.111Z,2.05
2022-12-22T09:16:58.660Z,1.83
2022-12-22T09:19:25.252Z,2.22
2022-12-22T09:21:51.707Z,2.30
2022-12-22T09:24:18.142Z,1.83
2022-12-22T09:26:44.592Z,2.50
2022-12-22T09:29:11.059Z,2.70
2022-12-22T09:31:37.663Z,1.67
2022-12-22T09:34:04.177Z,4.53
2022-12-22T09:36:30.659Z,3.72
2022-12-22T09:38:57.148Z,1.48
2022-12-22T09:41:23.588Z,2.30
2022-12-22T09:43:50.089Z,1.85
2022-12-22T09:46:16.616Z,1.88
2022-12-22T09:48:43.120Z,1.42
2022-12-22T09:51:09.605Z,1.58
2022-12-22T09:53:36.104Z,1.38
2022-12-22T09:56:02.550Z,1.70
2022-12-22T09:58:29.055Z,1.52
2022-12-22T10:00:55.640Z,2.13
2022-12-22T10:03:22.258Z,2.42
2022-12-22T10:05:48.751Z,2.65
2022-12-22T10:08:15.212Z,0.95
2022-12-22T10:10:41.768Z,2.55
2022-12-22T10:13:08.266Z,1.90
2022-12-22T10:15:34.706Z,2.50
2022-12-22T10:18:01.209Z,3.25
2022-12-22T10:20:27.745Z,1.70
2022-12-22T10:22:54.206Z,1.67
2022-12-22T10:25:20.661Z,2.20
2022-12-22T10:27:51.475Z,2.22
2022-12-22T10:30:18.177Z,2.28
2022-12-22T10:32:44.748Z,2.67
2022-12-22T10:35:11.257Z,1.98
2022-12-22T10:37:37.870Z,1.25
2022-12-22T10:40:04.836Z,2.73
2022-12-22T10:42:31.343Z,3.13
2022-12-22T10:44:57.826Z,1.15
2022-12-22T10:47:24.633Z,4.00
2022-12-22T10:52:17.834Z,3.25
2022-12-22T10:54:45.020Z,3.38
2022-12-22T10:57:11.506Z,1.73
2022-12-22T10:59:37.978Z,1.92
2022-12-22T11:02:04.543Z,2.13
2022-12-22T11:04:31.096Z,2.20
2022-12-22T11:06:57.571Z,4.25
2022-12-22T11:09:33.902Z,1.88
2022-12-22T11:12:01.362Z,2.67
2022-12-22T11:14:27.874Z,3.72
2022-12-22T11:16:54.415Z,2.42
2022-12-22T11:19:20.949Z,2.90
2022-12-22T11:21:47.441Z,2.20
2022-12-22T11:24:13.927Z,2.30
2022-12-22T11:26:40.379Z,3.80
2022-12-22T11:29:06.830Z,2.55
2022-12-22T11:31:33.309Z,2.97
2022-12-22T11:33:59.897Z,2.28
2022-12-22T11:36:26.391Z,1.80
2022-12-22T11:38:52.848Z,2.92
2022-12-22T11:41:19.299Z,1.77
2022-12-22T11:43:45.741Z,2.42
2022-12-22T11:46:12.304Z,2.90
2022-12-22T11:48:38.826Z,2.15
2022-12-22T11:51:10.503Z,2.72
2022-12-22T11:53:39.817Z,2.45
2022-12-22T11:56:07.149Z,2.53
2022-12-22T11:58:33.609Z,4.00
2022-12-22T12:01:20.449Z,1.60
2022-12-22T12:03:46.543Z,2.10
2022-12-22T12:06:13.143Z,1.50
2022-12-22T12:08:39.589Z,3.53
2022-12-22T12:11:06.072Z,2.42
2022-12-22T12:13:37.080Z,1.70
2022-12-22T12:16:04.350Z,1.80
2022-12-22T12:18:30.882Z,1.48
2022-12-22T12:20:57.331Z,3.00
2022-12-22T12:23:23.835Z,3.13
2022-12-22T12:25:50.332Z,1.45
2022-12-22T12:28:16.829Z,3.38
2022-12-22T12:30:43.310Z,1.73
2022-12-22T12:33:09.748Z,1.30
2022-12-22T12:35:36.232Z,1.50
2022-12-22T12:38:02.716Z,3.72
2022-12-22T12:40:29.157Z,3.38
2022-12-22T12:42:55.648Z,1.77
2022-12-22T12:45:22.141Z,2.20
2022-12-22T12:47:48.605Z,2.28
2022-12-22T12:50:15.093Z,2.13
2022-12-22T12:52:41.555Z,2.17
2022-12-22T12:55:08.017Z,1.60
2022-12-22T12:57:34.479Z,2.45
2022-12-22T13:00:00.957Z,3.55
2022-12-22T13:02:27.842Z,2.85
2022-12-22T13:04:54.563Z,3.20
2022-12-22T13:07:21.018Z,2.92
2022-12-22T13:09:51.432Z,1.55
2022-12-22T13:12:24.315Z,3.35
2022-12-22T13:14:51.152Z,1.95
2022-12-22T13:17:17.708Z,1.85
2022-12-22T13:19:44.353Z,2.17
2022-12-22T13:22:10.826Z,2.28
2022-12-22T13:24:37.280Z,2.22
2022-12-22T13:27:03.737Z,2.72
2022-12-22T13:29:30.393Z,2.05
2022-12-22T13:31:57.816Z,1.88
2022-12-22T13:34:24.324Z,4.07
2022-12-22T13:36:50.773Z,2.33
2022-12-22T13:39:17.264Z,2.83
2022-12-22T13:41:43.800Z,2.30
2022-12-22T13:44:10.249Z,2.60
2022-12-22T13:46:36.768Z,2.10
2022-12-22T13:49:03.303Z,3.22
2022-12-22T13:51:29.763Z,1.67
2022-12-22T13:54:12.599Z,3.40
2022-12-22T13:56:39.410Z,2.42
2022-12-22T13:59:05.927Z,2.72
2022-12-22T14:01:32.581Z,2.60
2022-12-22T14:04:01.412Z,2.17
2022-12-22T14:06:28.494Z,2.38
2022-12-22T14:08:54.962Z,4.35
2022-12-22T14:11:21.461Z,2.80
2022-12-22T14:13:47.962Z,2.53
2022-12-22T14:16:14.459Z,3.72
2022-12-22T14:18:40.924Z,2.55
2022-12-22T14:21:07.401Z,2.80
2022-12-22T14:23:33.936Z,2.38
2022-12-22T14:26:00.441Z,1.70
2022-12-22T14:28:26.880Z,3.50
2022-12-22T14:30:53.396Z,2.75
2022-12-22T14:33:19.862Z,2.20
2022-12-22T14:35:46.340Z,2.35
2022-12-22T14:38:12.811Z,3.10
2022-12-22T14:40:39.278Z,2.13
2022-12-22T14:43:05.768Z,2.20
2022-12-22T14:45:32.298Z,2.20
2022-12-22T14:47:58.770Z,5.57
2022-12-22T14:50:25.227Z,1.42
2022-12-22T14:52:51.694Z,2.70
2022-12-22T14:55:18.134Z,2.88
2022-12-22T14:57:44.620Z,2.67
2022-12-22T15:00:11.123Z,1.98
2022-12-22T15:02:40.087Z,1.60
2022-12-22T15:05:07.057Z,2.45
2022-12-22T15:08:04.751Z,2.03
2022-12-22T15:15:54.693Z,1.60
2022-12-22T15:18:21.208Z,2.38
2022-12-22T15:20:47.693Z,1.63
2022-12-22T15:23:14.248Z,3.53
2022-12-22T15:25:40.808Z,2.80
2022-12-22T15:28:07.270Z,6.53
2022-12-22T15:30:33.813Z,2.95
2022-12-22T15:33:00.331Z,3.05
2022-12-22T15:35:26.839Z,3.20
2022-12-22T15:37:53.287Z,3.50
2022-12-22T15:40:19.734Z,6.35
2022-12-22T15:42:46.176Z,3.50
2022-12-22T15:45:12.621Z,6.78
2022-12-22T15:47:39.054Z,4.40
2022-12-22T15:50:05.525Z,4.75
2022-12-22T15:52:31.973Z,5.97
2022-12-22T15:54:58.467Z,3.25
2022-12-22T15:57:24.929Z,2.63
2022-12-22T15:59:51.411Z,2.63
2022-12-22T16:02:19.264Z,3.55
2022-12-22T16:04:45.900Z,1.80
2022-12-22T16:07:12.424Z,3.25
2022-12-22T16:09:38.881Z,9.00
2022-12-22T16:12:05.303Z,2.35
2022-12-22T16:14:38.765Z,4.40
2022-12-22T16:17:08.830Z,2.75
2022-12-22T16:19:35.286Z,2.40
2022-12-22T16:22:01.739Z,4.47
2022-12-22T16:24:28.231Z,3.85
2022-12-22T16:26:54.717Z,3.17
2022-12-22T16:29:21.237Z,4.75
2022-12-22T16:31:47.787Z,3.20
2022-12-22T16:34:14.249Z,4.72
2022-12-22T16:36:40.764Z,3.38
2022-12-22T16:39:07.209Z,4.43
2022-12-22T16:41:33.708Z,3.60
2022-12-22T16:44:05.625Z,2.95
2022-12-22T16:46:32.539Z,5.90
2022-12-22T16:48:59.060Z,4.30
2022-12-22T16:51:25.499Z,2.65
2022-12-22T16:53:51.968Z,2.25
2022-12-22T16:56:18.450Z,3.15
2022-12-22T16:58:44.913Z,2.85
2022-12-22T17:01:11.365Z,4.05
2022-12-22T17:03:38.007Z,3.40
2022-12-22T17:06:04.583Z,4.93
2022-12-22T17:08:31.142Z,2.53
2022-12-22T17:10:57.633Z,3.72
2022-12-22T17:13:24.096Z,4.18
2022-12-22T17:15:50.526Z,4.43
2022-12-22T17:18:17.020Z,3.45
2022-12-22T17:20:43.499Z,3.95
2022-12-22T17:23:09.976Z,4.88
2022-12-22T17:25:36.424Z,4.43
2022-12-22T17:28:02.886Z,5.13
2022-12-22T17:30:29.332Z,3.50
2022-12-22T17:32:55.816Z,2.22
2022-12-22T17:35:22.369Z,7.60
2022-12-22T17:37:48.802Z,4.80
2022-12-22T17:40:15.335Z,5.35
2022-12-22T17:42:41.864Z,4.25
2022-12-22T17:45:08.465Z,6.05
2022-12-22T17:47:42.374Z,2.72
2022-12-22T17:50:09.431Z,2.85
2022-12-22T17:52:35.880Z,3.38
2022-12-22T17:55:02.385Z,3.80
2022-12-22T17:57:28.849Z,4.97
2022-12-22T17:59:55.334Z,9.20
2022-12-22T18:02:21.898Z,3.83
2022-12-22T18:04:48.462Z,4.20
2022-12-22T18:07:14.898Z,4.68
2022-12-22T18:09:41.366Z,4.35
2022-12-22T18:12:07.876Z,4.10
2022-12-22T18:14:34.326Z,3.70
2022-12-22T18:17:00.874Z,5.90
2022-12-22T18:19:27.370Z,9.88
2022-12-22T18:21:53.876Z,9.85
2022-12-22T18:30:32.761Z,4.30
2022-12-22T18:32:59.250Z,7.18
2022-12-22T18:35:25.724Z,6.18
2022-12-22T18:37:52.167Z,4.70
2022-12-22T18:40:23.071Z,5.07
2022-12-22T18:42:52.698Z,6.70
2022-12-22T18:45:19.187Z,4.68
2022-12-22T18:47:45.707Z,6.88
2022-12-22T18:50:12.182Z,6.25
2022-12-22T18:52:38.635Z,9.57
2022-12-22T18:55:05.073Z,7.90
2022-12-22T18:57:31.545Z,11.60
2022-12-22T18:59:58.028Z,5.72
2022-12-22T19:02:24.662Z,6.55
2022-12-22T19:04:51.233Z,8.85
2022-12-22T19:07:17.736Z,11.30
2022-12-22T19:09:44.219Z,5.95
2022-12-22T19:12:10.679Z,7.55
2022-12-22T19:14:37.139Z,8.02
2022-12-22T19:17:03.570Z,6.30
2022-12-22T19:19:30.065Z,11.70
2022-12-22T19:21:56.561Z,7.38
2022-12-22T19:24:23.026Z,5.78
2022-12-22T19:26:49.485Z,6.32
2022-12-22T19:29:16.046Z,7.38
2022-12-22T19:31:42.573Z,6.70
2022-12-22T19:34:09.087Z,7.07
2022-12-22T19:36:35.607Z,6.85
2022-12-22T19:39:05.046Z,6.40
2022-12-22T19:41:32.208Z,7.72
2022-12-22T19:43:58.667Z,7.82
2022-12-22T19:46:25.236Z,5.13
2022-12-22T19:48:51.751Z,5.43
2022-12-22T19:51:18.235Z,5.38
2022-12-22T19:53:44.702Z,4.53
2022-12-22T19:56:11.154Z,8.02
2022-12-22T19:58:37.608Z,6.60
2022-12-22T20:01:04.098Z,4.82
2022-12-22T20:03:30.735Z,7.38
2022-12-22T20:05:57.372Z,6.80
2022-12-22T20:08:23.861Z,7.60
2022-12-22T20:10:56.303Z,7.78
2022-12-22T20:13:25.054Z,4.55
2022-12-22T20:15:51.503Z,5.47
2022-12-22T20:18:18.032Z,6.07
2022-12-22T20:20:44.476Z,7.35
2022-12-22T20:23:11.001Z,4.68
2022-12-22T20:25:37.484Z,5.72
2022-12-22T20:28:03.967Z,6.20
2022-12-22T20:30:30.470Z,7.65
2022-12-22T20:32:56.946Z,5.10
2022-12-22T20:35:23.457Z,5.82
2022-12-22T20:37:49.905Z,3.92
2022-12-22T20:40:16.413Z,5.28
2022-12-22T20:42:42.863Z,4.40
2022-12-22T20:45:09.319Z,6.13
2022-12-22T20:47:35.849Z,4.95
2022-12-22T20:50:02.325Z,4.18
2022-12-22T20:52:28.785Z,5.75
2022-12-22T20:54:55.277Z,5.78
2022-12-22T20:57:21.770Z,3.42
2022-12-22T20:59:52.195Z,4.95
2022-12-22T21:02:22.290Z,6.88
2022-12-22T21:04:48.935Z,4.28
2022-12-22T21:07:15.398Z,6.80
2022-12-22T21:09:41.884Z,7.28
2022-12-22T21:12:08.346Z,8.65
2022-12-22T21:14:34.793Z,5.32
2022-12-22T21:17:01.432Z,3.75
2022-12-22T21:19:27.984Z,5.63
2022-12-22T21:21:54.457Z,7.85
2022-12-22T21:24:20.934Z,9.77
2022-12-22T21:26:47.373Z,7.22
2022-12-22T21:29:13.866Z,3.83
2022-12-22T21:31:40.355Z,5.78
2022-12-22T21:34:06.841Z,4.13
2022-12-22T21:36:33.279Z,3.80
2022-12-22T21:38:59.767Z,4.72
2022-12-22T21:41:26.283Z,3.70
2022-12-22T21:43:52.711Z,4.53
2022-12-22T21:46:19.251Z,5.90
2022-12-22T21:48:45.784Z,9.32
2022-12-22T21:51:12.262Z,4.22
2022-12-22T21:53:38.742Z,8.70
2022-12-22T21:56:05.247Z,5.97
2022-12-22T21:58:31.767Z,4.45
2022-12-22T22:00:58.294Z,4.63
2022-12-22T22:03:24.853Z,2.95
2022-12-22T22:05:51.335Z,4.53
2022-12-22T22:08:17.876Z,3.88
2022-12-22T22:10:44.342Z,3.38
2022-12-22T22:13:10.864Z,3.97
2022-12-22T22:15:37.399Z,2.50
2022-12-22T22:18:07.247Z,4.07
2022-12-22T22:20:34.099Z,3.97
2022-12-22T22:23:00.550Z,4.53
2022-12-22T22:25:27.046Z,4.40
2022-12-22T22:27:53.552Z,4.32
2022-12-22T22:30:19.981Z,5.40
2022-12-22T22:32:46.469Z,4.95
2022-12-22T22:35:12.986Z,5.57
2022-12-22T22:37:39.438Z,3.88
2022-12-22T22:40:05.911Z,2.97
2022-12-22T22:42:32.340Z,2.40
2022-12-22T22:44:58.784Z,2.90
2022-12-22T22:47:25.272Z,3.53
2022-12-22T22:49:51.747Z,1.90
2022-12-22T22:52:18.224Z,3.30
2022-12-22T22:54:44.667Z,2.85
2022-12-22T22:57:11.216Z,2.65
2022-12-22T22:59:37.653Z,2.58
2022-12-22T23:02:04.274Z,3.15
2022-12-22T23:04:31.055Z,1.95
2022-12-22T23:06:57.644Z,4.22
2022-12-22T23:09:24.174Z,2.63
2022-12-22T23:11:50.799Z,3.95
2022-12-22T23:14:17.308Z,4.30
2022-12-22T23:16:43.826Z,2.72
2022-12-22T23:19:10.378Z,3.00
2022-12-22T23:21:36.861Z,2.53
2022-12-22T23:24:03.295Z,2.83
2022-12-22T23:26:29.741Z,4.35
2022-12-22T23:29:02.643Z,2.90
2022-12-22T23:31:29.660Z,4.22
2022-12-22T23:33:56.150Z,1.83
2022-12-22T23:36:22.637Z,2.85
2022-12-22T23:38:49.145Z,2.47
2022-12-22T23:41:15.592Z,1.70
2022-12-22T23:43:42.096Z,2.15
2022-12-22T23:46:08.604Z,1.75
2022-12-22T23:48:35.091Z,2.03
2022-12-22T23:51:01.552Z,2.08
2022-12-22T23:53:28.023Z,2.22
2022-12-22T23:55:54.525Z,1.65
2022-12-22T23:58:20.996Z,3.33
